»·PEaware :: WAT169 KLAS-KSNA

WAT169 :: KLAS-KSNA

FLIGHT INFORMATION

Flight Status: Arrived
Operator:
Walker Air Transport
More flights by this operator :: More flights under this callsign
Pilot: Marty P. (27464)
Aircraft: BOEING 737-800
(B738)
More flights by this aircraft type
Origin: KLAS McCarran Intl
United States
Destination: KSNA John Wayne-Orange Co
United States
More flights between these airports :: More routes between these airports
Route: BOACH8 WHIGG FEYLA DSNEE4
File this flight plan on PilotEdge
Remarks:
Altitude:
(Current/Filed)
26,000ft
Speed:
(Current/Filed)
480kts
Departed: 05-Oct-20 09:08 PM
Arrived: 05-Oct-20 09:47 PM
Distance/Time
Traveled:
197nm/0:39
Distance/Time
To Go:
Arrived

Flight Plot

Page will automatically refresh every two minutes.

Flight plan parsing failed; only flown route is shown


Map Options




Map Legend


Flown Route
Filed Route
Departure Airport
Arrival Airport
Navaid (VOR, NDB)
Fix

Horizontal Profiles

Position Reports

Time Latitude Longitude Heading Altitude Ground
Speed
05-Oct-20 20:45 36.079906 -115.147061 0 2099ft 0kts
05-Oct-20 20:46 36.079906 -115.147061 61 2099ft 0kts
05-Oct-20 20:47 36.079906 -115.147061 61 2099ft 0kts
05-Oct-20 20:48 36.079906 -115.147061 61 2099ft 0kts
05-Oct-20 20:49 36.079906 -115.147061 61 2099ft 0kts
05-Oct-20 20:50 36.079906 -115.147061 61 2099ft 0kts
05-Oct-20 20:51 36.079906 -115.147061 61 2099ft 0kts
05-Oct-20 20:52 36.079906 -115.147061 61 2099ft 0kts
05-Oct-20 20:53 36.079906 -115.147061 61 2099ft 0kts
05-Oct-20 20:54 36.079818 -115.147262 61 2100ft 2kts
05-Oct-20 20:55 36.079933 -115.147884 152 2102ft 0kts
05-Oct-20 20:56 36.080003 -115.147922 155 2102ft 0kts
05-Oct-20 20:57 36.080003 -115.147922 155 2102ft 0kts
05-Oct-20 20:58 36.080003 -115.147922 155 2102ft 0kts
05-Oct-20 20:59 36.079695 -115.147742 154 2102ft 6kts
05-Oct-20 21:00 36.077693 -115.145893 94 2100ft 14kts
05-Oct-20 21:01 36.077528 -115.138635 90 2079ft 24kts
05-Oct-20 21:02 36.077541 -115.129595 90 2052ft 24kts
05-Oct-20 21:03 36.077545 -115.122489 90 2040ft 11kts
05-Oct-20 21:04 36.077433 -115.121524 126 2039ft 0kts
05-Oct-20 21:05 36.077433 -115.121523 126 2039ft 0kts
05-Oct-20 21:06 36.076454 -115.121910 264 2041ft 12kts
05-Oct-20 21:07 36.076430 -115.154001 270 2297ft 188kts
05-Oct-20 21:08 36.074943 -115.224450 254 4217ft 250kts
05-Oct-20 21:09 36.022885 -115.277949 200 7778ft 264kts
05-Oct-20 21:10 35.951242 -115.304005 187 11572ft 279kts
05-Oct-20 21:11 35.864159 -115.313915 182 13149ft 362kts
05-Oct-20 21:12 35.759925 -115.304037 175 16132ft 382kts
05-Oct-20 21:13 35.657893 -115.331650 217 18872ft 391kts
05-Oct-20 21:14 35.580447 -115.426867 228 21293ft 402kts
05-Oct-20 21:15 35.503794 -115.529574 228 23173ft 421kts
05-Oct-20 21:16 35.423506 -115.637712 228 23120ft 432kts
05-Oct-20 21:17 35.343430 -115.745451 227 25151ft 427kts
05-Oct-20 21:18 35.261700 -115.855177 227 26111ft 455kts
05-Oct-20 21:19 35.171128 -115.972689 225 26152ft 496kts
05-Oct-20 21:20 35.072019 -116.097012 225 26100ft 523kts
05-Oct-20 21:21 34.971303 -116.223468 225 26109ft 490kts
05-Oct-20 21:22 34.878769 -116.339399 225 26086ft 471kts
05-Oct-20 21:23 34.792019 -116.449536 226 25351ft 445kts
05-Oct-20 21:24 34.710058 -116.553714 225 25074ft 397kts
05-Oct-20 21:25 34.624998 -116.641666 218 23072ft 403kts
05-Oct-20 21:26 34.539075 -116.725731 218 20545ft 382kts
05-Oct-20 21:27 34.461480 -116.810681 223 18752ft 379kts
05-Oct-20 21:28 34.386481 -116.898777 223 16246ft 375kts
05-Oct-20 21:29 34.313455 -116.982274 222 14900ft 351kts
05-Oct-20 21:30 34.238264 -117.054903 210 14012ft 344kts
05-Oct-20 21:31 34.154747 -117.111802 204 13689ft 348kts
05-Oct-20 21:32 34.068230 -117.157854 203 12282ft 338kts
05-Oct-20 21:33 33.986982 -117.212270 223 11555ft 329kts
05-Oct-20 21:34 33.930849 -117.287998 229 10064ft 284kts
05-Oct-20 21:35 33.881784 -117.357088 229 8559ft 260kts
05-Oct-20 21:36 33.837277 -117.420049 230 7972ft 239kts
05-Oct-20 21:37 33.815908 -117.496146 261 6396ft 247kts
05-Oct-20 21:38 33.811921 -117.569795 271 5783ft 203kts
05-Oct-20 21:39 33.824532 -117.634888 301 5752ft 204kts
05-Oct-20 21:40 33.852549 -117.691438 301 4621ft 193kts
05-Oct-20 21:41 33.865668 -117.747997 227 3758ft 192kts
05-Oct-20 21:42 33.819527 -117.777599 206 3026ft 198kts
05-Oct-20 21:43 33.771666 -117.807916 207 2074ft 186kts
05-Oct-20 21:44 33.732545 -117.832766 207 1219ft 151kts
05-Oct-20 21:45 33.695576 -117.856224 207 405ft 149kts
05-Oct-20 21:46 33.670441 -117.872117 198 66ft 19kts
05-Oct-20 21:47 33.669172 -117.871569 119 66ft 2kts
05-Oct-20 21:48 33.672156 -117.868090 27 66ft 19kts
05-Oct-20 21:49 33.675137 -117.865394 145 66ft 3kts

Navigation Log

Ident Type
Flight plan parsing failed, navigation log unavailable